Current | Forecast
Updated: 11:30 AM KST on December 12, 2017
Observed at Incheon, North Korea
Temperature -7°C
Windchill -14°C
Humidity 46%
Dew Point -17°C
Wind NW at 18 km/h
Pressure 1032 hPa (Steady)
Conditions Partly Cloudy
Visibility 10.0 kilometers
UV 3 out of 16
Clouds (FEW) : 609 m
Yesterday's Maximum -2°C
Yesterday's Minimum -9°C approx.
Yesterday's Heating Degree Days 43 approx.
Sunrise7:12 AM KST
Sunset4:45 PM KST
Moon Rise1:08 AM KST
Moon Set1:30 PM KST
Moon PhaseMoon Phase
Waning Crescent
Raw METARMETAR RKSI 120230Z 32010KT 9999 FEW020 M07/M17 Q1032 NOSIG


Monday
. High: 73° F.
Tuesday
. High: 69° F.
Wednesday
. High: 68° F.
Thursday
. High: 73° F.
Friday
. High: 75° F.
Saturday
. High: 71° F.
Sunday
. High: 71° F.
Monday
. High: 78° F.

Units: English | Metric

Find the Weather for any City, State or Zipcode, or Country:

U.S. State List | Severe Weather | Tropical Storms | Ski Conditions
United States | Canada | Central America | South America | Asia | Europe | Australia | Africa | Islands

Weather Underground

© Copyright 2017
The Weather Company, LLC